Lyons, NY

15:11 EDT le 23 juillet 2016 (GMT -0400)
Lakeshore Riders Wayne County | | Change Station

Elev 440 ft 43.11 °N, 76.95 °W | Updated 0 second ago

Partly Cloudy
Partiellement nuageux
86.7 °F
Feels Like 88 °F
N
5.0
Vent Variable Vent from OSO
Gusts 14.0 mph

High -- | Low -- °F
--% Risque de précip.
Hier
High -- | Low -- °F
Precip. -- pouce
Pression 29.90 pouce
Visibilité 10.0 Miles
Nuages Few 7000 ft
Index de chaleur 88 °F
Point de rosée 64 °F
Humidité 47%
Rainfall 0.00 pouce
Profondeur de la couche neigeuse Not available.
5:49 AM 8:38 PM
Waning Gibbous, 83% visible
METAR KPEO 231853Z AUTO 30011G22KT 10SM FEW070 31/12 A2992 RMK AO2 SLP123 T03110122 TSNO
Pression 29.90 pouce
Visibilité 10.0 Miles
Nuages Few 7000 ft
Index de chaleur 88 °F
Point de rosée 64 °F
Humidité 47%
Rainfall 0.00 pouce
Profondeur de la couche neigeuse Not available.
5:49 AM 8:38 PM
Waning Gibbous, 83% visible
METAR KPEO 231853Z AUTO 30011G22KT 10SM FEW070 31/12 A2992 RMK AO2 SLP123 T03110122 TSNO

10-Day Weather Forecast

Almanac

Astronomie

Jul. 23, 2016 Rise Set
Temps réel
Crépuscule civil
Crépuscule nautique
Crépuscule astronomique
Lune
Durée de lumière visible
Longueur du jour
Tomorrow will be .
, % of the Moon is Illuminated

State Highs State Lows

Community

WunderPhotos

Upload Photos

1,926,896 photos uploaded!

WunderBlog® & News

Nearby

Profondeur de la couche de neige

Station Depth Elevation

Earthquake Activity

Ville Distance Mag. Time & Date
Minimum magnitude displayed is 2.5.

Coastal Water Temperatures

Lieu Les températures

Stations

Nearby Weather Stations

Station Location Temp Refroidissement éolien Point de rosée Humidité Vent Precip. Elev Mise à jour Type
                   

Watches & Warnings

There are currently no watches in effect.